sensor_id;sensor_type;location;lat;lon;timestamp;P1;durP1;ratioP1;P2;durP2;ratioP2
75375;SDS011;63958;52.004;5.908;2022-10-31T00:01:35;4.88;;;3.00;;
75375;SDS011;63958;52.004;5.908;2022-10-31T00:04:06;3.05;;;2.20;;
75375;SDS011;63958;52.004;5.908;2022-10-31T00:06:35;2.80;;;2.20;;
75375;SDS011;63958;52.004;5.908;2022-10-31T00:09:04;3.80;;;2.38;;
75375;SDS011;63958;52.004;5.908;2022-10-31T00:11:36;2.47;;;2.17;;
75375;SDS011;63958;52.004;5.908;2022-10-31T00:14:05;2.65;;;1.90;;
75375;SDS011;63958;52.004;5.908;2022-10-31T00:16:34;3.88;;;2.85;;
75375;SDS011;63958;52.004;5.908;2022-10-31T00:19:03;3.47;;;2.90;;
75375;SDS011;63958;52.004;5.908;2022-10-31T00:21:34;3.53;;;1.83;;
75375;SDS011;63958;52.004;5.908;2022-10-31T00:24:03;2.35;;;1.98;;
75375;SDS011;63958;52.004;5.908;2022-10-31T00:26:36;3.25;;;2.00;;
75375;SDS011;63958;52.004;5.908;2022-10-31T00:29:05;3.53;;;2.30;;
75375;SDS011;63958;52.004;5.908;2022-10-31T00:31:34;3.15;;;2.40;;
75375;SDS011;63958;52.004;5.908;2022-10-31T00:34:03;3.60;;;1.90;;
75375;SDS011;63958;52.004;5.908;2022-10-31T00:36:32;2.85;;;1.90;;
75375;SDS011;63958;52.004;5.908;2022-10-31T00:39:01;2.65;;;1.90;;
75375;SDS011;63958;52.004;5.908;2022-10-31T00:41:31;2.35;;;1.92;;
75375;SDS011;63958;52.004;5.908;2022-10-31T00:44:02;3.47;;;2.42;;
75375;SDS011;63958;52.004;5.908;2022-10-31T00:46:31;2.55;;;1.95;;
75375;SDS011;63958;52.004;5.908;2022-10-31T00:49:00;2.92;;;1.88;;
75375;SDS011;63958;52.004;5.908;2022-10-31T00:51:30;3.38;;;2.40;;
75375;SDS011;63958;52.004;5.908;2022-10-31T00:53:59;2.80;;;2.05;;
75375;SDS011;63958;52.004;5.908;2022-10-31T00:56:28;3.35;;;2.30;;
75375;SDS011;63958;52.004;5.908;2022-10-31T00:58:58;2.55;;;2.10;;
75375;SDS011;63958;52.004;5.908;2022-10-31T01:01:30;2.95;;;2.10;;
75375;SDS011;63958;52.004;5.908;2022-10-31T01:04:01;3.03;;;2.22;;
75375;SDS011;63958;52.004;5.908;2022-10-31T01:06:31;3.53;;;2.20;;
75375;SDS011;63958;52.004;5.908;2022-10-31T01:09:00;3.30;;;2.38;;
75375;SDS011;63958;52.004;5.908;2022-10-31T01:11:29;3.10;;;2.20;;
75375;SDS011;63958;52.004;5.908;2022-10-31T01:13:58;3.08;;;2.25;;
75375;SDS011;63958;52.004;5.908;2022-10-31T01:16:29;2.40;;;1.90;;
75375;SDS011;63958;52.004;5.908;2022-10-31T01:18:58;2.83;;;2.35;;
75375;SDS011;63958;52.004;5.908;2022-10-31T01:21:28;4.30;;;2.47;;
75375;SDS011;63958;52.004;5.908;2022-10-31T01:23:58;3.33;;;2.45;;
75375;SDS011;63958;52.004;5.908;2022-10-31T01:26:28;3.10;;;2.22;;
75375;SDS011;63958;52.004;5.908;2022-10-31T01:28:59;3.00;;;2.30;;
75375;SDS011;63958;52.004;5.908;2022-10-31T01:31:32;3.88;;;2.30;;
75375;SDS011;63958;52.004;5.908;2022-10-31T01:34:03;3.15;;;2.28;;
75375;SDS011;63958;52.004;5.908;2022-10-31T01:36:33;3.10;;;2.33;;
75375;SDS011;63958;52.004;5.908;2022-10-31T01:39:05;4.38;;;2.50;;
75375;SDS011;63958;52.004;5.908;2022-10-31T01:41:35;3.33;;;2.45;;
75375;SDS011;63958;52.004;5.908;2022-10-31T01:46:54;3.42;;;2.30;;
75375;SDS011;63958;52.004;5.908;2022-10-31T01:49:28;2.88;;;2.15;;
75375;SDS011;63958;52.004;5.908;2022-10-31T01:52:03;3.47;;;2.33;;
75375;SDS011;63958;52.004;5.908;2022-10-31T01:54:37;3.38;;;1.90;;
75375;SDS011;63958;52.004;5.908;2022-10-31T01:57:08;3.10;;;2.30;;
75375;SDS011;63958;52.004;5.908;2022-10-31T02:02:13;5.03;;;2.97;;
75375;SDS011;63958;52.004;5.908;2022-10-31T02:04:45;5.00;;;3.22;;
75375;SDS011;63958;52.004;5.908;2022-10-31T02:07:18;3.72;;;2.50;;
75375;SDS011;63958;52.004;5.908;2022-10-31T02:09:52;3.80;;;2.53;;
75375;SDS011;63958;52.004;5.908;2022-10-31T02:12:22;4.25;;;2.80;;
75375;SDS011;63958;52.004;5.908;2022-10-31T02:14:57;5.95;;;3.30;;
75375;SDS011;63958;52.004;5.908;2022-10-31T02:17:31;4.95;;;3.38;;
75375;SDS011;63958;52.004;5.908;2022-10-31T02:20:05;5.32;;;3.42;;
75375;SDS011;63958;52.004;5.908;2022-10-31T02:22:50;4.90;;;3.10;;
75375;SDS011;63958;52.004;5.908;2022-10-31T02:25:56;4.60;;;3.38;;
75375;SDS011;63958;52.004;5.908;2022-10-31T02:28:42;3.95;;;3.20;;
75375;SDS011;63958;52.004;5.908;2022-10-31T02:31:40;5.32;;;3.50;;
75375;SDS011;63958;52.004;5.908;2022-10-31T02:34:15;3.90;;;3.22;;
75375;SDS011;63958;52.004;5.908;2022-10-31T02:36:49;4.75;;;3.80;;
75375;SDS011;63958;52.004;5.908;2022-10-31T02:39:26;4.63;;;3.35;;
75375;SDS011;63958;52.004;5.908;2022-10-31T02:42:03;4.80;;;3.95;;
75375;SDS011;63958;52.004;5.908;2022-10-31T02:44:38;4.63;;;3.50;;
75375;SDS011;63958;52.004;5.908;2022-10-31T02:47:16;5.00;;;4.00;;
75375;SDS011;63958;52.004;5.908;2022-10-31T02:49:48;5.13;;;3.90;;
75375;SDS011;63958;52.004;5.908;2022-10-31T02:52:24;5.63;;;3.70;;
75375;SDS011;63958;52.004;5.908;2022-10-31T02:55:08;4.00;;;3.15;;
75375;SDS011;63958;52.004;5.908;2022-10-31T02:57:39;3.70;;;2.92;;
75375;SDS011;63958;52.004;5.908;2022-10-31T03:00:11;2.65;;;2.38;;
75375;SDS011;63958;52.004;5.908;2022-10-31T03:02:46;4.65;;;3.40;;
75375;SDS011;63958;52.004;5.908;2022-10-31T03:05:28;3.00;;;2.53;;
75375;SDS011;63958;52.004;5.908;2022-10-31T03:08:11;5.57;;;3.63;;
75375;SDS011;63958;52.004;5.908;2022-10-31T03:10:47;4.63;;;3.42;;
75375;SDS011;63958;52.004;5.908;2022-10-31T03:13:26;5.05;;;3.85;;
75375;SDS011;63958;52.004;5.908;2022-10-31T03:16:04;5.72;;;3.00;;
75375;SDS011;63958;52.004;5.908;2022-10-31T03:18:40;4.40;;;3.40;;
75375;SDS011;63958;52.004;5.908;2022-10-31T03:21:13;5.38;;;3.15;;
75375;SDS011;63958;52.004;5.908;2022-10-31T03:23:44;6.10;;;3.88;;
75375;SDS011;63958;52.004;5.908;2022-10-31T03:26:19;4.45;;;3.85;;
75375;SDS011;63958;52.004;5.908;2022-10-31T03:28:50;5.97;;;4.15;;
75375;SDS011;63958;52.004;5.908;2022-10-31T03:31:24;5.78;;;4.10;;
75375;SDS011;63958;52.004;5.908;2022-10-31T03:34:00;5.35;;;4.05;;
75375;SDS011;63958;52.004;5.908;2022-10-31T03:36:32;6.50;;;4.38;;
75375;SDS011;63958;52.004;5.908;2022-10-31T03:39:04;4.63;;;3.78;;
75375;SDS011;63958;52.004;5.908;2022-10-31T03:41:38;4.78;;;4.18;;
75375;SDS011;63958;52.004;5.908;2022-10-31T03:44:13;5.40;;;3.55;;
75375;SDS011;63958;52.004;5.908;2022-10-31T03:46:51;4.00;;;3.28;;
75375;SDS011;63958;52.004;5.908;2022-10-31T03:49:23;6.00;;;3.83;;
75375;SDS011;63958;52.004;5.908;2022-10-31T03:51:54;4.28;;;3.85;;
75375;SDS011;63958;52.004;5.908;2022-10-31T03:54:28;5.43;;;3.92;;
75375;SDS011;63958;52.004;5.908;2022-10-31T03:57:05;5.40;;;4.13;;
75375;SDS011;63958;52.004;5.908;2022-10-31T03:59:36;5.68;;;4.70;;
75375;SDS011;63958;52.004;5.908;2022-10-31T04:02:12;6.43;;;4.00;;
75375;SDS011;63958;52.004;5.908;2022-10-31T04:04:46;5.00;;;4.15;;
75375;SDS011;63958;52.004;5.908;2022-10-31T04:07:17;4.90;;;3.85;;
75375;SDS011;63958;52.004;5.908;2022-10-31T04:09:49;5.68;;;4.00;;
75375;SDS011;63958;52.004;5.908;2022-10-31T04:12:21;4.17;;;3.13;;
75375;SDS011;63958;52.004;5.908;2022-10-31T04:15:02;5.55;;;3.90;;
75375;SDS011;63958;52.004;5.908;2022-10-31T04:17:35;5.72;;;4.32;;
75375;SDS011;63958;52.004;5.908;2022-10-31T04:20:12;5.57;;;4.22;;
75375;SDS011;63958;52.004;5.908;2022-10-31T04:22:44;4.72;;;3.97;;
75375;SDS011;63958;52.004;5.908;2022-10-31T04:25:13;6.57;;;4.07;;
75375;SDS011;63958;52.004;5.908;2022-10-31T04:27:42;5.18;;;4.05;;
75375;SDS011;63958;52.004;5.908;2022-10-31T04:30:11;5.70;;;4.35;;
75375;SDS011;63958;52.004;5.908;2022-10-31T04:32:40;5.75;;;4.10;;
75375;SDS011;63958;52.004;5.908;2022-10-31T04:35:12;5.85;;;4.68;;
75375;SDS011;63958;52.004;5.908;2022-10-31T04:37:41;6.65;;;4.45;;
75375;SDS011;63958;52.004;5.908;2022-10-31T04:40:10;5.85;;;4.75;;
75375;SDS011;63958;52.004;5.908;2022-10-31T04:42:55;8.57;;;5.05;;
75375;SDS011;63958;52.004;5.908;2022-10-31T04:45:24;6.13;;;4.55;;
75375;SDS011;63958;52.004;5.908;2022-10-31T04:47:53;5.95;;;4.57;;
75375;SDS011;63958;52.004;5.908;2022-10-31T04:50:25;5.07;;;3.78;;
75375;SDS011;63958;52.004;5.908;2022-10-31T04:52:54;5.10;;;4.05;;
75375;SDS011;63958;52.004;5.908;2022-10-31T04:55:26;5.45;;;3.63;;
75375;SDS011;63958;52.004;5.908;2022-10-31T04:58:12;7.32;;;5.18;;
75375;SDS011;63958;52.004;5.908;2022-10-31T05:00:43;7.15;;;4.60;;
75375;SDS011;63958;52.004;5.908;2022-10-31T05:03:13;6.13;;;4.65;;
75375;SDS011;63958;52.004;5.908;2022-10-31T05:05:44;6.10;;;4.45;;
75375;SDS011;63958;52.004;5.908;2022-10-31T05:08:14;6.75;;;5.07;;
75375;SDS011;63958;52.004;5.908;2022-10-31T05:10:43;5.10;;;4.43;;
75375;SDS011;63958;52.004;5.908;2022-10-31T05:13:12;5.35;;;4.65;;
75375;SDS011;63958;52.004;5.908;2022-10-31T05:16:17;5.63;;;4.10;;
75375;SDS011;63958;52.004;5.908;2022-10-31T05:18:48;5.43;;;4.40;;
75375;SDS011;63958;52.004;5.908;2022-10-31T05:21:38;5.68;;;3.70;;
75375;SDS011;63958;52.004;5.908;2022-10-31T05:24:08;6.65;;;4.22;;
75375;SDS011;63958;52.004;5.908;2022-10-31T05:26:39;4.70;;;3.78;;
75375;SDS011;63958;52.004;5.908;2022-10-31T05:29:09;4.35;;;3.70;;
75375;SDS011;63958;52.004;5.908;2022-10-31T05:31:38;5.32;;;3.80;;
75375;SDS011;63958;52.004;5.908;2022-10-31T05:34:14;6.60;;;3.90;;
75375;SDS011;63958;52.004;5.908;2022-10-31T05:37:14;5.90;;;4.80;;
75375;SDS011;63958;52.004;5.908;2022-10-31T05:39:46;5.90;;;4.47;;
75375;SDS011;63958;52.004;5.908;2022-10-31T05:42:16;6.05;;;4.55;;
75375;SDS011;63958;52.004;5.908;2022-10-31T05:44:45;5.68;;;4.35;;
75375;SDS011;63958;52.004;5.908;2022-10-31T05:47:31;6.13;;;4.63;;
75375;SDS011;63958;52.004;5.908;2022-10-31T05:50:39;7.93;;;5.05;;
75375;SDS011;63958;52.004;5.908;2022-10-31T05:53:12;7.78;;;5.00;;
75375;SDS011;63958;52.004;5.908;2022-10-31T05:55:42;7.35;;;5.03;;
75375;SDS011;63958;52.004;5.908;2022-10-31T05:58:14;5.60;;;4.40;;
75375;SDS011;63958;52.004;5.908;2022-10-31T06:00:49;6.35;;;4.30;;
75375;SDS011;63958;52.004;5.908;2022-10-31T06:03:18;6.43;;;4.20;;
75375;SDS011;63958;52.004;5.908;2022-10-31T06:05:51;6.15;;;4.10;;
75375;SDS011;63958;52.004;5.908;2022-10-31T06:08:24;5.97;;;3.95;;
75375;SDS011;63958;52.004;5.908;2022-10-31T06:10:55;5.10;;;3.85;;
75375;SDS011;63958;52.004;5.908;2022-10-31T06:13:47;5.53;;;4.28;;
75375;SDS011;63958;52.004;5.908;2022-10-31T06:16:21;6.32;;;3.97;;
75375;SDS011;63958;52.004;5.908;2022-10-31T06:18:51;4.80;;;3.95;;
75375;SDS011;63958;52.004;5.908;2022-10-31T06:21:20;5.85;;;4.15;;
75375;SDS011;63958;52.004;5.908;2022-10-31T06:23:53;5.13;;;4.13;;
75375;SDS011;63958;52.004;5.908;2022-10-31T06:26:51;5.07;;;3.97;;
75375;SDS011;63958;52.004;5.908;2022-10-31T06:29:20;4.93;;;4.10;;
75375;SDS011;63958;52.004;5.908;2022-10-31T06:32:09;7.25;;;4.75;;
75375;SDS011;63958;52.004;5.908;2022-10-31T06:34:42;5.38;;;4.03;;
75375;SDS011;63958;52.004;5.908;2022-10-31T06:37:14;5.38;;;3.60;;
75375;SDS011;63958;52.004;5.908;2022-10-31T06:39:48;4.95;;;3.70;;
75375;SDS011;63958;52.004;5.908;2022-10-31T06:42:17;5.30;;;3.78;;
75375;SDS011;63958;52.004;5.908;2022-10-31T06:44:47;6.70;;;5.13;;
75375;SDS011;63958;52.004;5.908;2022-10-31T06:47:34;5.07;;;3.80;;
75375;SDS011;63958;52.004;5.908;2022-10-31T06:50:10;7.15;;;4.70;;
75375;SDS011;63958;52.004;5.908;2022-10-31T06:52:39;6.78;;;5.20;;
75375;SDS011;63958;52.004;5.908;2022-10-31T06:55:11;5.38;;;4.45;;
75375;SDS011;63958;52.004;5.908;2022-10-31T06:57:39;5.82;;;4.68;;
75375;SDS011;63958;52.004;5.908;2022-10-31T07:00:09;6.22;;;4.38;;
75375;SDS011;63958;52.004;5.908;2022-10-31T07:02:43;4.90;;;3.75;;
75375;SDS011;63958;52.004;5.908;2022-10-31T07:05:22;7.60;;;4.75;;
75375;SDS011;63958;52.004;5.908;2022-10-31T07:07:52;6.75;;;4.65;;
75375;SDS011;63958;52.004;5.908;2022-10-31T07:10:25;7.50;;;3.95;;
75375;SDS011;63958;52.004;5.908;2022-10-31T07:13:00;6.63;;;4.20;;
75375;SDS011;63958;52.004;5.908;2022-10-31T07:15:34;6.28;;;4.65;;
75375;SDS011;63958;52.004;5.908;2022-10-31T07:18:05;6.57;;;5.13;;
75375;SDS011;63958;52.004;5.908;2022-10-31T07:20:35;7.78;;;4.88;;
75375;SDS011;63958;52.004;5.908;2022-10-31T07:23:04;7.43;;;4.88;;
75375;SDS011;63958;52.004;5.908;2022-10-31T07:25:36;5.35;;;4.30;;
75375;SDS011;63958;52.004;5.908;2022-10-31T07:28:10;4.93;;;3.83;;
75375;SDS011;63958;52.004;5.908;2022-10-31T07:30:39;4.55;;;3.75;;
75375;SDS011;63958;52.004;5.908;2022-10-31T07:33:08;4.85;;;3.30;;
75375;SDS011;63958;52.004;5.908;2022-10-31T07:35:59;3.97;;;2.63;;
75375;SDS011;63958;52.004;5.908;2022-10-31T07:38:30;4.25;;;2.80;;
75375;SDS011;63958;52.004;5.908;2022-10-31T07:41:05;5.90;;;4.22;;
75375;SDS011;63958;52.004;5.908;2022-10-31T07:43:39;5.00;;;4.10;;
75375;SDS011;63958;52.004;5.908;2022-10-31T07:46:17;5.28;;;3.47;;
75375;SDS011;63958;52.004;5.908;2022-10-31T07:49:04;6.43;;;4.03;;
75375;SDS011;63958;52.004;5.908;2022-10-31T07:51:56;5.05;;;3.75;;
75375;SDS011;63958;52.004;5.908;2022-10-31T07:54:43;6.10;;;4.68;;
75375;SDS011;63958;52.004;5.908;2022-10-31T07:57:17;5.20;;;3.53;;
75375;SDS011;63958;52.004;5.908;2022-10-31T07:59:46;5.10;;;4.10;;
75375;SDS011;63958;52.004;5.908;2022-10-31T08:02:17;5.82;;;4.00;;
75375;SDS011;63958;52.004;5.908;2022-10-31T08:04:46;5.40;;;4.28;;
75375;SDS011;63958;52.004;5.908;2022-10-31T08:07:35;4.13;;;3.40;;
75375;SDS011;63958;52.004;5.908;2022-10-31T08:10:11;6.75;;;3.58;;
75375;SDS011;63958;52.004;5.908;2022-10-31T08:12:42;3.60;;;2.92;;
75375;SDS011;63958;52.004;5.908;2022-10-31T08:15:11;6.85;;;3.75;;
75375;SDS011;63958;52.004;5.908;2022-10-31T08:17:41;6.45;;;4.65;;
75375;SDS011;63958;52.004;5.908;2022-10-31T08:20:10;10.50;;;5.78;;
75375;SDS011;63958;52.004;5.908;2022-10-31T08:22:52;5.75;;;4.57;;
75375;SDS011;63958;52.004;5.908;2022-10-31T08:25:27;8.88;;;5.70;;
75375;SDS011;63958;52.004;5.908;2022-10-31T08:28:00;13.77;;;7.60;;
75375;SDS011;63958;52.004;5.908;2022-10-31T08:30:30;14.45;;;9.77;;
75375;SDS011;63958;52.004;5.908;2022-10-31T08:33:36;15.68;;;10.73;;
75375;SDS011;63958;52.004;5.908;2022-10-31T08:36:23;8.88;;;6.57;;
75375;SDS011;63958;52.004;5.908;2022-10-31T08:39:09;10.32;;;7.40;;
75375;SDS011;63958;52.004;5.908;2022-10-31T08:41:38;6.45;;;5.38;;
75375;SDS011;63958;52.004;5.908;2022-10-31T08:44:13;5.32;;;4.25;;
75375;SDS011;63958;52.004;5.908;2022-10-31T08:46:43;8.48;;;6.45;;
75375;SDS011;63958;52.004;5.908;2022-10-31T08:49:12;6.28;;;4.80;;
75375;SDS011;63958;52.004;5.908;2022-10-31T08:51:42;5.10;;;3.83;;
75375;SDS011;63958;52.004;5.908;2022-10-31T08:54:11;5.18;;;3.50;;
75375;SDS011;63958;52.004;5.908;2022-10-31T08:56:55;4.45;;;3.45;;
75375;SDS011;63958;52.004;5.908;2022-10-31T08:59:56;4.97;;;3.90;;
75375;SDS011;63958;52.004;5.908;2022-10-31T09:02:54;5.35;;;4.25;;
75375;SDS011;63958;52.004;5.908;2022-10-31T09:05:25;4.75;;;3.70;;
75375;SDS011;63958;52.004;5.908;2022-10-31T09:07:56;5.72;;;4.82;;
75375;SDS011;63958;52.004;5.908;2022-10-31T09:10:26;7.80;;;5.55;;
75375;SDS011;63958;52.004;5.908;2022-10-31T09:12:56;10.52;;;7.85;;
75375;SDS011;63958;52.004;5.908;2022-10-31T09:15:47;8.95;;;5.82;;
75375;SDS011;63958;52.004;5.908;2022-10-31T09:18:23;7.00;;;5.10;;
75375;SDS011;63958;52.004;5.908;2022-10-31T09:20:59;6.00;;;4.30;;
75375;SDS011;63958;52.004;5.908;2022-10-31T09:23:30;6.15;;;3.95;;
75375;SDS011;63958;52.004;5.908;2022-10-31T09:26:00;8.30;;;5.72;;
75375;SDS011;63958;52.004;5.908;2022-10-31T09:28:37;7.72;;;5.63;;
75375;SDS011;63958;52.004;5.908;2022-10-31T09:31:11;10.65;;;6.22;;
75375;SDS011;63958;52.004;5.908;2022-10-31T09:33:54;7.28;;;5.15;;
75375;SDS011;63958;52.004;5.908;2022-10-31T09:36:47;8.38;;;6.15;;
75375;SDS011;63958;52.004;5.908;2022-10-31T09:39:20;7.53;;;6.13;;
75375;SDS011;63958;52.004;5.908;2022-10-31T09:41:58;9.80;;;7.95;;
75375;SDS011;63958;52.004;5.908;2022-10-31T09:44:49;10.73;;;7.88;;
75375;SDS011;63958;52.004;5.908;2022-10-31T09:47:49;6.40;;;4.80;;
75375;SDS011;63958;52.004;5.908;2022-10-31T09:50:33;10.95;;;7.70;;
75375;SDS011;63958;52.004;5.908;2022-10-31T09:53:32;9.20;;;7.00;;
75375;SDS011;63958;52.004;5.908;2022-10-31T09:56:07;7.65;;;5.70;;
75375;SDS011;63958;52.004;5.908;2022-10-31T09:58:41;7.07;;;5.30;;
75375;SDS011;63958;52.004;5.908;2022-10-31T10:01:16;6.45;;;4.82;;
75375;SDS011;63958;52.004;5.908;2022-10-31T10:03:54;9.32;;;6.75;;
75375;SDS011;63958;52.004;5.908;2022-10-31T10:06:51;7.25;;;5.40;;
75375;SDS011;63958;52.004;5.908;2022-10-31T10:09:40;8.75;;;6.10;;
75375;SDS011;63958;52.004;5.908;2022-10-31T10:12:45;11.10;;;8.05;;
75375;SDS011;63958;52.004;5.908;2022-10-31T10:15:35;12.95;;;8.75;;
75375;SDS011;63958;52.004;5.908;2022-10-31T10:18:17;9.55;;;7.72;;
75375;SDS011;63958;52.004;5.908;2022-10-31T10:20:59;8.70;;;6.32;;
75375;SDS011;63958;52.004;5.908;2022-10-31T10:23:42;15.25;;;9.70;;
75375;SDS011;63958;52.004;5.908;2022-10-31T10:26:19;10.20;;;7.07;;
75375;SDS011;63958;52.004;5.908;2022-10-31T10:28:49;8.82;;;6.28;;
75375;SDS011;63958;52.004;5.908;2022-10-31T10:31:27;15.05;;;10.40;;
75375;SDS011;63958;52.004;5.908;2022-10-31T10:34:01;11.60;;;8.20;;
75375;SDS011;63958;52.004;5.908;2022-10-31T10:36:39;8.77;;;6.45;;
75375;SDS011;63958;52.004;5.908;2022-10-31T10:39:11;6.65;;;5.18;;
75375;SDS011;63958;52.004;5.908;2022-10-31T10:41:46;7.82;;;4.93;;
75375;SDS011;63958;52.004;5.908;2022-10-31T10:44:29;9.40;;;6.43;;
75375;SDS011;63958;52.004;5.908;2022-10-31T10:47:11;14.50;;;8.93;;
75375;SDS011;63958;52.004;5.908;2022-10-31T10:49:53;11.23;;;7.55;;
75375;SDS011;63958;52.004;5.908;2022-10-31T10:52:26;10.20;;;7.22;;
75375;SDS011;63958;52.004;5.908;2022-10-31T10:55:03;14.02;;;8.00;;
75375;SDS011;63958;52.004;5.908;2022-10-31T10:57:44;8.73;;;6.32;;
75375;SDS011;63958;52.004;5.908;2022-10-31T11:00:22;7.63;;;5.43;;
75375;SDS011;63958;52.004;5.908;2022-10-31T11:02:53;10.85;;;7.63;;
75375;SDS011;63958;52.004;5.908;2022-10-31T11:05:24;10.43;;;6.85;;
75375;SDS011;63958;52.004;5.908;2022-10-31T11:07:59;13.07;;;7.78;;
75375;SDS011;63958;52.004;5.908;2022-10-31T11:10:28;7.72;;;6.18;;
75375;SDS011;63958;52.004;5.908;2022-10-31T11:12:59;20.60;;;11.65;;
75375;SDS011;63958;52.004;5.908;2022-10-31T11:15:33;13.43;;;9.20;;
75375;SDS011;63958;52.004;5.908;2022-10-31T11:18:05;20.20;;;13.25;;
75375;SDS011;63958;52.004;5.908;2022-10-31T11:20:40;18.27;;;13.32;;
75375;SDS011;63958;52.004;5.908;2022-10-31T11:23:23;17.98;;;13.45;;
75375;SDS011;63958;52.004;5.908;2022-10-31T11:25:54;15.52;;;9.40;;
75375;SDS011;63958;52.004;5.908;2022-10-31T11:28:25;16.90;;;11.35;;
75375;SDS011;63958;52.004;5.908;2022-10-31T11:30:56;16.13;;;11.27;;
75375;SDS011;63958;52.004;5.908;2022-10-31T11:33:28;14.67;;;10.30;;
75375;SDS011;63958;52.004;5.908;2022-10-31T11:36:00;11.30;;;7.65;;
75375;SDS011;63958;52.004;5.908;2022-10-31T11:38:34;12.13;;;8.35;;
75375;SDS011;63958;52.004;5.908;2022-10-31T11:41:10;18.48;;;10.18;;
75375;SDS011;63958;52.004;5.908;2022-10-31T11:43:45;19.25;;;12.35;;
75375;SDS011;63958;52.004;5.908;2022-10-31T11:46:18;16.90;;;11.15;;
75375;SDS011;63958;52.004;5.908;2022-10-31T11:48:50;17.77;;;10.77;;
75375;SDS011;63958;52.004;5.908;2022-10-31T11:51:21;19.88;;;12.13;;
75375;SDS011;63958;52.004;5.908;2022-10-31T11:53:55;15.77;;;10.75;;
75375;SDS011;63958;52.004;5.908;2022-10-31T11:56:36;19.98;;;13.30;;
75375;SDS011;63958;52.004;5.908;2022-10-31T11:59:14;23.02;;;15.48;;
75375;SDS011;63958;52.004;5.908;2022-10-31T12:01:47;20.10;;;13.00;;
75375;SDS011;63958;52.004;5.908;2022-10-31T12:04:17;16.13;;;11.32;;
75375;SDS011;63958;52.004;5.908;2022-10-31T12:06:46;26.75;;;15.63;;
75375;SDS011;63958;52.004;5.908;2022-10-31T12:09:21;15.70;;;10.82;;
75375;SDS011;63958;52.004;5.908;2022-10-31T12:11:55;21.98;;;13.75;;
75375;SDS011;63958;52.004;5.908;2022-10-31T12:14:38;15.90;;;12.20;;
75375;SDS011;63958;52.004;5.908;2022-10-31T12:17:16;14.65;;;8.45;;
75375;SDS011;63958;52.004;5.908;2022-10-31T12:19:52;16.77;;;11.25;;
75375;SDS011;63958;52.004;5.908;2022-10-31T12:22:31;18.95;;;11.80;;
75375;SDS011;63958;52.004;5.908;2022-10-31T12:25:21;11.55;;;7.50;;
75375;SDS011;63958;52.004;5.908;2022-10-31T12:31:08;21.50;;;12.82;;
75375;SDS011;63958;52.004;5.908;2022-10-31T12:33:53;19.77;;;13.30;;
75375;SDS011;63958;52.004;5.908;2022-10-31T12:36:39;21.75;;;14.25;;
75375;SDS011;63958;52.004;5.908;2022-10-31T12:39:20;20.73;;;13.13;;
75375;SDS011;63958;52.004;5.908;2022-10-31T12:41:57;21.38;;;13.55;;
75375;SDS011;63958;52.004;5.908;2022-10-31T12:44:40;22.55;;;12.88;;
75375;SDS011;63958;52.004;5.908;2022-10-31T12:47:34;22.30;;;14.15;;
75375;SDS011;63958;52.004;5.908;2022-10-31T12:50:16;24.52;;;14.45;;
75375;SDS011;63958;52.004;5.908;2022-10-31T12:52:54;23.63;;;14.75;;
75375;SDS011;63958;52.004;5.908;2022-10-31T12:55:31;20.48;;;13.45;;
75375;SDS011;63958;52.004;5.908;2022-10-31T12:58:13;31.65;;;20.27;;
75375;SDS011;63958;52.004;5.908;2022-10-31T13:00:46;29.80;;;17.60;;
75375;SDS011;63958;52.004;5.908;2022-10-31T13:03:25;23.70;;;15.93;;
75375;SDS011;63958;52.004;5.908;2022-10-31T13:06:02;19.25;;;12.77;;
75375;SDS011;63958;52.004;5.908;2022-10-31T13:08:35;25.75;;;15.40;;
75375;SDS011;63958;52.004;5.908;2022-10-31T13:11:10;28.30;;;17.25;;
75375;SDS011;63958;52.004;5.908;2022-10-31T13:13:48;21.95;;;13.18;;
75375;SDS011;63958;52.004;5.908;2022-10-31T13:16:24;21.90;;;13.52;;
75375;SDS011;63958;52.004;5.908;2022-10-31T13:18:57;18.65;;;11.98;;
75375;SDS011;63958;52.004;5.908;2022-10-31T13:21:30;24.35;;;15.45;;
75375;SDS011;63958;52.004;5.908;2022-10-31T13:24:07;20.67;;;13.82;;
75375;SDS011;63958;52.004;5.908;2022-10-31T13:26:42;23.00;;;14.52;;
75375;SDS011;63958;52.004;5.908;2022-10-31T13:29:19;24.25;;;12.82;;
75375;SDS011;63958;52.004;5.908;2022-10-31T13:31:53;24.67;;;15.52;;
75375;SDS011;63958;52.004;5.908;2022-10-31T13:34:25;23.13;;;15.40;;
75375;SDS011;63958;52.004;5.908;2022-10-31T13:37:00;16.85;;;9.93;;
75375;SDS011;63958;52.004;5.908;2022-10-31T13:39:39;18.45;;;12.45;;
75375;SDS011;63958;52.004;5.908;2022-10-31T13:42:17;18.73;;;11.18;;
75375;SDS011;63958;52.004;5.908;2022-10-31T13:44:51;20.70;;;12.07;;
75375;SDS011;63958;52.004;5.908;2022-10-31T13:47:22;21.95;;;12.30;;
75375;SDS011;63958;52.004;5.908;2022-10-31T13:50:03;28.67;;;16.60;;
75375;SDS011;63958;52.004;5.908;2022-10-31T13:52:33;28.83;;;16.15;;
75375;SDS011;63958;52.004;5.908;2022-10-31T13:55:03;21.05;;;13.45;;
75375;SDS011;63958;52.004;5.908;2022-10-31T13:57:33;21.88;;;14.80;;
75375;SDS011;63958;52.004;5.908;2022-10-31T14:00:21;22.50;;;13.45;;
75375;SDS011;63958;52.004;5.908;2022-10-31T14:02:54;22.65;;;13.02;;
75375;SDS011;63958;52.004;5.908;2022-10-31T14:05:25;26.10;;;14.52;;
75375;SDS011;63958;52.004;5.908;2022-10-31T14:07:58;36.05;;;14.77;;
75375;SDS011;63958;52.004;5.908;2022-10-31T14:10:30;23.77;;;14.50;;
75375;SDS011;63958;52.004;5.908;2022-10-31T14:13:04;20.30;;;11.60;;
75375;SDS011;63958;52.004;5.908;2022-10-31T14:15:38;16.92;;;9.90;;
75375;SDS011;63958;52.004;5.908;2022-10-31T14:20:51;27.98;;;14.40;;
75375;SDS011;63958;52.004;5.908;2022-10-31T14:29:03;20.45;;;12.07;;
75375;SDS011;63958;52.004;5.908;2022-10-31T14:32:04;22.05;;;14.73;;
75375;SDS011;63958;52.004;5.908;2022-10-31T14:34:40;21.15;;;13.65;;
75375;SDS011;63958;52.004;5.908;2022-10-31T14:37:23;23.13;;;13.10;;
75375;SDS011;63958;52.004;5.908;2022-10-31T14:40:04;16.42;;;11.18;;
75375;SDS011;63958;52.004;5.908;2022-10-31T14:42:53;17.13;;;11.07;;
75375;SDS011;63958;52.004;5.908;2022-10-31T14:45:33;17.30;;;10.23;;
75375;SDS011;63958;52.004;5.908;2022-10-31T14:48:16;13.55;;;8.38;;
75375;SDS011;63958;52.004;5.908;2022-10-31T14:51:08;19.48;;;11.70;;
75375;SDS011;63958;52.004;5.908;2022-10-31T14:53:43;18.15;;;11.77;;
75375;SDS011;63958;52.004;5.908;2022-10-31T14:56:17;21.08;;;12.13;;
75375;SDS011;63958;52.004;5.908;2022-10-31T14:58:49;20.00;;;11.40;;
75375;SDS011;63958;52.004;5.908;2022-10-31T15:01:20;15.13;;;9.18;;
75375;SDS011;63958;52.004;5.908;2022-10-31T15:03:57;18.60;;;11.40;;
75375;SDS011;63958;52.004;5.908;2022-10-31T15:06:35;16.60;;;10.40;;
75375;SDS011;63958;52.004;5.908;2022-10-31T15:09:20;15.13;;;9.32;;
75375;SDS011;63958;52.004;5.908;2022-10-31T15:11:50;16.63;;;10.68;;
75375;SDS011;63958;52.004;5.908;2022-10-31T15:14:23;20.80;;;12.93;;
75375;SDS011;63958;52.004;5.908;2022-10-31T15:16:54;17.67;;;10.50;;
75375;SDS011;63958;52.004;5.908;2022-10-31T15:19:28;16.65;;;10.45;;
75375;SDS011;63958;52.004;5.908;2022-10-31T15:21:58;20.17;;;12.05;;
75375;SDS011;63958;52.004;5.908;2022-10-31T15:24:30;19.50;;;12.30;;
75375;SDS011;63958;52.004;5.908;2022-10-31T15:27:01;19.50;;;13.25;;
75375;SDS011;63958;52.004;5.908;2022-10-31T15:29:31;21.35;;;13.43;;
75375;SDS011;63958;52.004;5.908;2022-10-31T15:32:09;16.73;;;10.57;;
75375;SDS011;63958;52.004;5.908;2022-10-31T15:34:49;19.73;;;11.85;;
75375;SDS011;63958;52.004;5.908;2022-10-31T15:37:19;26.40;;;14.68;;
75375;SDS011;63958;52.004;5.908;2022-10-31T15:39:50;19.98;;;12.80;;
75375;SDS011;63958;52.004;5.908;2022-10-31T15:42:20;13.68;;;9.30;;
75375;SDS011;63958;52.004;5.908;2022-10-31T15:44:52;13.30;;;8.85;;
75375;SDS011;63958;52.004;5.908;2022-10-31T15:47:27;14.55;;;9.30;;